sensor_id;sensor_type;location;lat;lon;timestamp;temperature;humidity
3923;DHT22;1976;51.694;6.256;2023-11-22T00:00:27;5.10;99.90
3923;DHT22;1976;51.694;6.256;2023-11-22T00:02:53;5.10;99.90
3923;DHT22;1976;51.694;6.256;2023-11-22T00:05:19;5.20;99.90
3923;DHT22;1976;51.694;6.256;2023-11-22T00:07:44;5.60;99.90
3923;DHT22;1976;51.694;6.256;2023-11-22T00:10:10;5.10;99.90
3923;DHT22;1976;51.694;6.256;2023-11-22T00:12:35;5.10;99.90
3923;DHT22;1976;51.694;6.256;2023-11-22T00:15:05;5.10;99.90
3923;DHT22;1976;51.694;6.256;2023-11-22T00:17:32;5.00;99.90
3923;DHT22;1976;51.694;6.256;2023-11-22T00:19:58;5.00;99.90
3923;DHT22;1976;51.694;6.256;2023-11-22T00:22:25;5.00;99.90
3923;DHT22;1976;51.694;6.256;2023-11-22T00:24:53;5.00;99.90
3923;DHT22;1976;51.694;6.256;2023-11-22T00:27:19;4.90;99.90
3923;DHT22;1976;51.694;6.256;2023-11-22T00:29:44;4.90;99.90
3923;DHT22;1976;51.694;6.256;2023-11-22T00:32:11;4.90;99.90
3923;DHT22;1976;51.694;6.256;2023-11-22T00:34:37;4.90;99.90
3923;DHT22;1976;51.694;6.256;2023-11-22T00:37:03;4.90;99.90
3923;DHT22;1976;51.694;6.256;2023-11-22T00:39:28;4.90;99.90
3923;DHT22;1976;51.694;6.256;2023-11-22T00:41:54;4.90;99.90
3923;DHT22;1976;51.694;6.256;2023-11-22T00:44:21;4.90;99.90
3923;DHT22;1976;51.694;6.256;2023-11-22T00:46:46;4.90;99.90
3923;DHT22;1976;51.694;6.256;2023-11-22T00:49:12;4.90;99.90
3923;DHT22;1976;51.694;6.256;2023-11-22T00:51:38;4.90;99.90
3923;DHT22;1976;51.694;6.256;2023-11-22T00:54:04;4.90;99.90
3923;DHT22;1976;51.694;6.256;2023-11-22T00:56:30;5.00;99.90
3923;DHT22;1976;51.694;6.256;2023-11-22T00:58:56;5.10;99.90
3923;DHT22;1976;51.694;6.256;2023-11-22T01:01:25;5.10;99.90
3923;DHT22;1976;51.694;6.256;2023-11-22T01:03:51;5.20;99.90
3923;DHT22;1976;51.694;6.256;2023-11-22T01:06:16;5.20;99.90
3923;DHT22;1976;51.694;6.256;2023-11-22T01:08:43;5.30;99.90
3923;DHT22;1976;51.694;6.256;2023-11-22T01:11:09;5.30;99.90
3923;DHT22;1976;51.694;6.256;2023-11-22T01:13:35;5.30;99.90
3923;DHT22;1976;51.694;6.256;2023-11-22T01:16:10;5.40;99.90
3923;DHT22;1976;51.694;6.256;2023-11-22T01:18:36;5.20;99.90
3923;DHT22;1976;51.694;6.256;2023-11-22T01:21:02;5.20;99.90
3923;DHT22;1976;51.694;6.256;2023-11-22T01:23:30;5.20;99.90
3923;DHT22;1976;51.694;6.256;2023-11-22T01:25:58;5.20;99.90
3923;DHT22;1976;51.694;6.256;2023-11-22T01:28:24;5.20;99.90
3923;DHT22;1976;51.694;6.256;2023-11-22T01:30:50;5.30;99.90
3923;DHT22;1976;51.694;6.256;2023-11-22T01:33:16;5.40;99.90
3923;DHT22;1976;51.694;6.256;2023-11-22T01:35:41;5.40;99.90
3923;DHT22;1976;51.694;6.256;2023-11-22T01:38:07;5.30;99.90
3923;DHT22;1976;51.694;6.256;2023-11-22T01:40:33;5.30;99.90
3923;DHT22;1976;51.694;6.256;2023-11-22T01:42:59;8.10;99.90
3923;DHT22;1976;51.694;6.256;2023-11-22T01:45:25;5.30;99.90
3923;DHT22;1976;51.694;6.256;2023-11-22T01:47:52;5.30;99.90
3923;DHT22;1976;51.694;6.256;2023-11-22T01:50:19;5.30;99.90
3923;DHT22;1976;51.694;6.256;2023-11-22T01:52:45;5.20;99.90
3923;DHT22;1976;51.694;6.256;2023-11-22T01:55:12;5.20;99.90
3923;DHT22;1976;51.694;6.256;2023-11-22T01:57:39;5.20;99.90
3923;DHT22;1976;51.694;6.256;2023-11-22T02:00:05;5.00;99.90
3923;DHT22;1976;51.694;6.256;2023-11-22T02:02:40;4.90;99.90
3923;DHT22;1976;51.694;6.256;2023-11-22T02:05:05;4.90;99.90
3923;DHT22;1976;51.694;6.256;2023-11-22T02:07:32;4.70;99.90
3923;DHT22;1976;51.694;6.256;2023-11-22T02:09:58;4.70;99.90
3923;DHT22;1976;51.694;6.256;2023-11-22T02:12:24;4.60;99.90
3923;DHT22;1976;51.694;6.256;2023-11-22T02:14:49;4.50;99.90
3923;DHT22;1976;51.694;6.256;2023-11-22T02:17:16;4.50;99.90
3923;DHT22;1976;51.694;6.256;2023-11-22T02:19:44;4.30;99.90
3923;DHT22;1976;51.694;6.256;2023-11-22T02:22:10;4.30;99.90
3923;DHT22;1976;51.694;6.256;2023-11-22T02:24:36;4.20;99.90
3923;DHT22;1976;51.694;6.256;2023-11-22T02:27:02;4.30;99.90
3923;DHT22;1976;51.694;6.256;2023-11-22T02:29:27;4.30;99.90
3923;DHT22;1976;51.694;6.256;2023-11-22T02:31:54;5.40;99.90
3923;DHT22;1976;51.694;6.256;2023-11-22T02:34:20;4.30;99.90
3923;DHT22;1976;51.694;6.256;2023-11-22T02:36:45;4.40;99.90
3923;DHT22;1976;51.694;6.256;2023-11-22T02:39:11;4.70;99.90
3923;DHT22;1976;51.694;6.256;2023-11-22T02:41:38;4.50;99.90
3923;DHT22;1976;51.694;6.256;2023-11-22T02:44:04;4.60;99.90
3923;DHT22;1976;51.694;6.256;2023-11-22T02:46:32;4.70;99.90
3923;DHT22;1976;51.694;6.256;2023-11-22T02:48:58;4.70;99.90
3923;DHT22;1976;51.694;6.256;2023-11-22T02:51:24;4.80;99.90
3923;DHT22;1976;51.694;6.256;2023-11-22T02:53:51;4.80;99.90
3923;DHT22;1976;51.694;6.256;2023-11-22T02:56:17;4.80;99.90
3923;DHT22;1976;51.694;6.256;2023-11-22T02:58:43;4.70;99.90
3923;DHT22;1976;51.694;6.256;2023-11-22T03:04:33;4.60;99.90
3923;DHT22;1976;51.694;6.256;2023-11-22T03:06:59;4.40;99.90
3923;DHT22;1976;51.694;6.256;2023-11-22T03:09:25;4.40;99.90
3923;DHT22;1976;51.694;6.256;2023-11-22T03:11:52;4.30;99.90
3923;DHT22;1976;51.694;6.256;2023-11-22T03:14:17;4.30;99.90
3923;DHT22;1976;51.694;6.256;2023-11-22T03:16:43;4.20;99.90
3923;DHT22;1976;51.694;6.256;2023-11-22T03:19:09;4.10;99.90
3923;DHT22;1976;51.694;6.256;2023-11-22T03:21:36;4.10;99.90
3923;DHT22;1976;51.694;6.256;2023-11-22T03:24:02;4.10;99.90
3923;DHT22;1976;51.694;6.256;2023-11-22T03:26:29;4.10;99.90
3923;DHT22;1976;51.694;6.256;2023-11-22T03:28:55;4.10;99.90
3923;DHT22;1976;51.694;6.256;2023-11-22T03:31:21;4.20;99.90
3923;DHT22;1976;51.694;6.256;2023-11-22T03:33:47;4.40;99.90
3923;DHT22;1976;51.694;6.256;2023-11-22T03:36:12;4.50;99.90
3923;DHT22;1976;51.694;6.256;2023-11-22T03:38:41;4.60;99.90
3923;DHT22;1976;51.694;6.256;2023-11-22T03:41:06;4.80;99.90
3923;DHT22;1976;51.694;6.256;2023-11-22T03:43:32;4.90;99.90
3923;DHT22;1976;51.694;6.256;2023-11-22T03:45:57;5.00;99.90
3923;DHT22;1976;51.694;6.256;2023-11-22T03:48:23;5.10;99.90
3923;DHT22;1976;51.694;6.256;2023-11-22T03:50:52;5.20;99.90
3923;DHT22;1976;51.694;6.256;2023-11-22T03:53:17;5.30;99.90
3923;DHT22;1976;51.694;6.256;2023-11-22T03:55:44;5.30;99.90
3923;DHT22;1976;51.694;6.256;2023-11-22T03:58:09;5.40;99.90
3923;DHT22;1976;51.694;6.256;2023-11-22T04:00:35;5.40;99.90
3923;DHT22;1976;51.694;6.256;2023-11-22T04:03:00;5.50;99.90
3923;DHT22;1976;51.694;6.256;2023-11-22T04:05:27;5.50;99.90
3923;DHT22;1976;51.694;6.256;2023-11-22T04:07:53;5.50;99.90
3923;DHT22;1976;51.694;6.256;2023-11-22T04:10:20;5.50;99.90
3923;DHT22;1976;51.694;6.256;2023-11-22T04:12:47;5.50;99.90
3923;DHT22;1976;51.694;6.256;2023-11-22T04:15:13;5.60;99.90
3923;DHT22;1976;51.694;6.256;2023-11-22T04:17:40;5.50;99.90
3923;DHT22;1976;51.694;6.256;2023-11-22T04:20:07;5.60;99.90
3923;DHT22;1976;51.694;6.256;2023-11-22T04:22:36;5.50;99.90
3923;DHT22;1976;51.694;6.256;2023-11-22T04:25:02;5.60;99.90
3923;DHT22;1976;51.694;6.256;2023-11-22T04:27:28;5.60;99.90
3923;DHT22;1976;51.694;6.256;2023-11-22T04:29:53;5.60;99.90
3923;DHT22;1976;51.694;6.256;2023-11-22T04:32:20;5.60;99.90
3923;DHT22;1976;51.694;6.256;2023-11-22T04:34:47;5.60;99.90
3923;DHT22;1976;51.694;6.256;2023-11-22T04:37:13;5.50;99.90
3923;DHT22;1976;51.694;6.256;2023-11-22T04:39:38;5.40;99.90
3923;DHT22;1976;51.694;6.256;2023-11-22T04:42:04;5.40;99.90
3923;DHT22;1976;51.694;6.256;2023-11-22T04:44:31;5.40;99.90
3923;DHT22;1976;51.694;6.256;2023-11-22T04:46:57;5.30;99.90
3923;DHT22;1976;51.694;6.256;2023-11-22T04:49:25;5.20;99.90
3923;DHT22;1976;51.694;6.256;2023-11-22T04:51:50;5.10;99.90
3923;DHT22;1976;51.694;6.256;2023-11-22T04:54:16;5.10;99.90
3923;DHT22;1976;51.694;6.256;2023-11-22T04:56:42;5.00;99.90
3923;DHT22;1976;51.694;6.256;2023-11-22T04:59:08;4.80;99.90
3923;DHT22;1976;51.694;6.256;2023-11-22T05:01:34;4.80;99.90
3923;DHT22;1976;51.694;6.256;2023-11-22T05:03:59;4.70;99.90
3923;DHT22;1976;51.694;6.256;2023-11-22T05:06:25;4.60;99.90
3923;DHT22;1976;51.694;6.256;2023-11-22T05:08:52;4.40;99.90
3923;DHT22;1976;51.694;6.256;2023-11-22T05:13:45;4.30;99.90
3923;DHT22;1976;51.694;6.256;2023-11-22T05:16:10;4.30;99.90
3923;DHT22;1976;51.694;6.256;2023-11-22T05:18:36;4.20;99.90
3923;DHT22;1976;51.694;6.256;2023-11-22T05:21:02;4.10;99.90
3923;DHT22;1976;51.694;6.256;2023-11-22T05:23:29;4.10;99.90
3923;DHT22;1976;51.694;6.256;2023-11-22T05:25:55;4.00;99.90
3923;DHT22;1976;51.694;6.256;2023-11-22T05:28:22;4.00;99.90
3923;DHT22;1976;51.694;6.256;2023-11-22T05:30:47;3.90;99.90
3923;DHT22;1976;51.694;6.256;2023-11-22T05:33:13;3.90;99.90
3923;DHT22;1976;51.694;6.256;2023-11-22T05:35:39;3.90;99.90
3923;DHT22;1976;51.694;6.256;2023-11-22T05:38:06;3.80;99.90
3923;DHT22;1976;51.694;6.256;2023-11-22T05:40:32;3.80;99.90
3923;DHT22;1976;51.694;6.256;2023-11-22T05:42:58;3.80;99.90
3923;DHT22;1976;51.694;6.256;2023-11-22T05:45:24;3.80;99.90
3923;DHT22;1976;51.694;6.256;2023-11-22T05:47:51;3.80;99.90
3923;DHT22;1976;51.694;6.256;2023-11-22T05:50:16;3.70;99.90
3923;DHT22;1976;51.694;6.256;2023-11-22T05:52:45;3.70;99.90
3923;DHT22;1976;51.694;6.256;2023-11-22T05:55:11;3.70;99.90
3923;DHT22;1976;51.694;6.256;2023-11-22T05:57:40;3.70;99.90
3923;DHT22;1976;51.694;6.256;2023-11-22T06:00:07;3.60;99.90
3923;DHT22;1976;51.694;6.256;2023-11-22T06:02:33;3.60;99.90
3923;DHT22;1976;51.694;6.256;2023-11-22T06:04:59;3.50;99.90
3923;DHT22;1976;51.694;6.256;2023-11-22T06:07:25;3.50;99.90
3923;DHT22;1976;51.694;6.256;2023-11-22T06:09:51;3.50;99.90
3923;DHT22;1976;51.694;6.256;2023-11-22T06:12:17;3.40;99.90
3923;DHT22;1976;51.694;6.256;2023-11-22T06:14:42;3.40;99.90
3923;DHT22;1976;51.694;6.256;2023-11-22T06:17:08;3.40;99.90
3923;DHT22;1976;51.694;6.256;2023-11-22T06:19:33;3.50;99.90
3923;DHT22;1976;51.694;6.256;2023-11-22T06:21:59;3.40;99.90
3923;DHT22;1976;51.694;6.256;2023-11-22T06:24:27;3.40;99.90
3923;DHT22;1976;51.694;6.256;2023-11-22T06:26:52;3.40;99.90
3923;DHT22;1976;51.694;6.256;2023-11-22T06:29:18;3.40;99.90
3923;DHT22;1976;51.694;6.256;2023-11-22T06:31:43;3.30;99.90
3923;DHT22;1976;51.694;6.256;2023-11-22T06:34:09;3.30;99.90
3923;DHT22;1976;51.694;6.256;2023-11-22T06:36:35;3.30;99.90
3923;DHT22;1976;51.694;6.256;2023-11-22T06:39:07;3.30;99.90
3923;DHT22;1976;51.694;6.256;2023-11-22T06:41:34;3.30;99.90
3923;DHT22;1976;51.694;6.256;2023-11-22T06:44:00;3.40;99.90
3923;DHT22;1976;51.694;6.256;2023-11-22T06:46:26;3.30;99.90
3923;DHT22;1976;51.694;6.256;2023-11-22T06:48:51;3.40;99.90
3923;DHT22;1976;51.694;6.256;2023-11-22T06:51:17;3.40;99.90
3923;DHT22;1976;51.694;6.256;2023-11-22T06:53:44;3.50;99.90
3923;DHT22;1976;51.694;6.256;2023-11-22T06:56:11;3.50;99.90
3923;DHT22;1976;51.694;6.256;2023-11-22T06:58:36;3.60;99.90
3923;DHT22;1976;51.694;6.256;2023-11-22T07:01:02;3.60;99.90
3923;DHT22;1976;51.694;6.256;2023-11-22T07:03:27;3.60;99.90
3923;DHT22;1976;51.694;6.256;2023-11-22T07:05:53;3.50;99.90
3923;DHT22;1976;51.694;6.256;2023-11-22T07:08:19;3.50;99.90
3923;DHT22;1976;51.694;6.256;2023-11-22T07:10:45;3.50;99.90
3923;DHT22;1976;51.694;6.256;2023-11-22T07:13:11;3.50;99.90
3923;DHT22;1976;51.694;6.256;2023-11-22T07:15:38;3.40;99.90
3923;DHT22;1976;51.694;6.256;2023-11-22T07:18:04;3.50;99.90
3923;DHT22;1976;51.694;6.256;2023-11-22T07:20:30;3.60;99.90
3923;DHT22;1976;51.694;6.256;2023-11-22T07:22:56;3.60;99.90
3923;DHT22;1976;51.694;6.256;2023-11-22T07:25:23;3.70;99.90
3923;DHT22;1976;51.694;6.256;2023-11-22T07:27:51;3.80;99.90
3923;DHT22;1976;51.694;6.256;2023-11-22T07:30:18;3.90;99.90
3923;DHT22;1976;51.694;6.256;2023-11-22T07:32:45;4.00;99.90
3923;DHT22;1976;51.694;6.256;2023-11-22T07:35:11;4.10;99.90
3923;DHT22;1976;51.694;6.256;2023-11-22T07:37:40;4.30;99.90
3923;DHT22;1976;51.694;6.256;2023-11-22T07:40:08;4.40;99.90
3923;DHT22;1976;51.694;6.256;2023-11-22T07:42:38;4.60;99.90
3923;DHT22;1976;51.694;6.256;2023-11-22T07:45:04;4.70;99.90
3923;DHT22;1976;51.694;6.256;2023-11-22T07:47:30;5.00;99.90
3923;DHT22;1976;51.694;6.256;2023-11-22T07:49:56;5.40;99.90
3923;DHT22;1976;51.694;6.256;2023-11-22T07:52:22;5.80;99.90
3923;DHT22;1976;51.694;6.256;2023-11-22T07:54:48;6.40;99.90
3923;DHT22;1976;51.694;6.256;2023-11-22T07:57:14;6.80;99.90
3923;DHT22;1976;51.694;6.256;2023-11-22T07:59:39;7.10;99.90
3923;DHT22;1976;51.694;6.256;2023-11-22T08:02:06;7.60;99.90
3923;DHT22;1976;51.694;6.256;2023-11-22T08:04:37;8.10;99.90
3923;DHT22;1976;51.694;6.256;2023-11-22T08:07:03;8.40;99.90
3923;DHT22;1976;51.694;6.256;2023-11-22T08:09:30;8.60;99.90
3923;DHT22;1976;51.694;6.256;2023-11-22T08:11:59;9.00;99.90
3923;DHT22;1976;51.694;6.256;2023-11-22T08:14:28;9.30;99.90
3923;DHT22;1976;51.694;6.256;2023-11-22T08:16:54;9.50;99.90
3923;DHT22;1976;51.694;6.256;2023-11-22T08:19:20;9.80;99.90
3923;DHT22;1976;51.694;6.256;2023-11-22T08:21:49;10.10;99.90
3923;DHT22;1976;51.694;6.256;2023-11-22T08:24:15;10.40;99.90
3923;DHT22;1976;51.694;6.256;2023-11-22T08:26:40;10.70;99.90
3923;DHT22;1976;51.694;6.256;2023-11-22T08:29:06;11.10;99.90
3923;DHT22;1976;51.694;6.256;2023-11-22T08:31:36;11.60;99.90
3923;DHT22;1976;51.694;6.256;2023-11-22T08:34:02;12.20;99.90
3923;DHT22;1976;51.694;6.256;2023-11-22T08:36:32;12.80;99.90
3923;DHT22;1976;51.694;6.256;2023-11-22T08:39:00;13.20;99.90
3923;DHT22;1976;51.694;6.256;2023-11-22T08:41:29;13.40;99.90
3923;DHT22;1976;51.694;6.256;2023-11-22T08:43:56;13.40;99.90
3923;DHT22;1976;51.694;6.256;2023-11-22T08:46:22;13.40;99.90
3923;DHT22;1976;51.694;6.256;2023-11-22T08:48:49;13.70;99.90
3923;DHT22;1976;51.694;6.256;2023-11-22T08:51:16;14.20;99.90
3923;DHT22;1976;51.694;6.256;2023-11-22T08:53:43;14.80;99.90
3923;DHT22;1976;51.694;6.256;2023-11-22T08:56:10;16.10;99.60
3923;DHT22;1976;51.694;6.256;2023-11-22T08:58:39;16.30;99.00
3923;DHT22;1976;51.694;6.256;2023-11-22T09:01:06;17.10;96.80
3923;DHT22;1976;51.694;6.256;2023-11-22T09:03:33;17.90;95.60
3923;DHT22;1976;51.694;6.256;2023-11-22T09:05:58;18.70;93.30
3923;DHT22;1976;51.694;6.256;2023-11-22T09:08:25;19.20;92.20
3923;DHT22;1976;51.694;6.256;2023-11-22T09:10:51;19.40;90.60
3923;DHT22;1976;51.694;6.256;2023-11-22T09:13:17;19.30;89.60
3923;DHT22;1976;51.694;6.256;2023-11-22T09:15:43;19.20;89.80
3923;DHT22;1976;51.694;6.256;2023-11-22T09:18:12;18.90;88.00
3923;DHT22;1976;51.694;6.256;2023-11-22T09:20:38;18.30;86.70
3923;DHT22;1976;51.694;6.256;2023-11-22T09:23:04;17.50;87.70
3923;DHT22;1976;51.694;6.256;2023-11-22T09:25:30;16.80;88.90
3923;DHT22;1976;51.694;6.256;2023-11-22T09:27:57;16.30;90.20
3923;DHT22;1976;51.694;6.256;2023-11-22T09:30:30;15.80;89.90
3923;DHT22;1976;51.694;6.256;2023-11-22T09:33:05;14.90;90.50
3923;DHT22;1976;51.694;6.256;2023-11-22T09:35:31;14.40;91.00
3923;DHT22;1976;51.694;6.256;2023-11-22T09:38:01;13.80;91.80
3923;DHT22;1976;51.694;6.256;2023-11-22T09:40:27;13.50;93.00
3923;DHT22;1976;51.694;6.256;2023-11-22T09:43:03;13.50;93.40
3923;DHT22;1976;51.694;6.256;2023-11-22T09:45:30;13.10;93.50
3923;DHT22;1976;51.694;6.256;2023-11-22T09:47:56;13.00;94.40
3923;DHT22;1976;51.694;6.256;2023-11-22T09:50:50;12.90;94.30
3923;DHT22;1976;51.694;6.256;2023-11-22T09:53:25;12.90;94.80
3923;DHT22;1976;51.694;6.256;2023-11-22T09:55:51;12.70;95.30
3923;DHT22;1976;51.694;6.256;2023-11-22T09:58:18;12.70;95.40
3923;DHT22;1976;51.694;6.256;2023-11-22T10:00:45;13.10;95.30
3923;DHT22;1976;51.694;6.256;2023-11-22T10:03:12;13.40;95.10
3923;DHT22;1976;51.694;6.256;2023-11-22T10:05:42;13.70;93.70
3923;DHT22;1976;51.694;6.256;2023-11-22T10:08:07;13.20;93.30
3923;DHT22;1976;51.694;6.256;2023-11-22T10:10:36;12.90;94.10
3923;DHT22;1976;51.694;6.256;2023-11-22T10:13:02;12.80;94.10
3923;DHT22;1976;51.694;6.256;2023-11-22T10:15:28;12.60;94.50
3923;DHT22;1976;51.694;6.256;2023-11-22T10:17:58;12.70;94.80
3923;DHT22;1976;51.694;6.256;2023-11-22T10:23:00;13.10;94.50
3923;DHT22;1976;51.694;6.256;2023-11-22T10:25:26;12.90;94.20
3923;DHT22;1976;51.694;6.256;2023-11-22T10:27:52;12.80;94.40
3923;DHT22;1976;51.694;6.256;2023-11-22T10:30:18;12.50;93.70
3923;DHT22;1976;51.694;6.256;2023-11-22T10:32:45;11.90;94.50
3923;DHT22;1976;51.694;6.256;2023-11-22T10:35:11;11.40;95.20
3923;DHT22;1976;51.694;6.256;2023-11-22T10:37:41;11.20;95.90
3923;DHT22;1976;51.694;6.256;2023-11-22T10:40:08;11.20;96.80
3923;DHT22;1976;51.694;6.256;2023-11-22T10:42:37;11.30;96.20
3923;DHT22;1976;51.694;6.256;2023-11-22T10:45:05;11.50;96.40
3923;DHT22;1976;51.694;6.256;2023-11-22T10:47:36;11.80;95.70
3923;DHT22;1976;51.694;6.256;2023-11-22T10:50:04;12.10;96.00
3923;DHT22;1976;51.694;6.256;2023-11-22T10:52:30;12.70;96.10
3923;DHT22;1976;51.694;6.256;2023-11-22T10:55:02;13.30;95.10
3923;DHT22;1976;51.694;6.256;2023-11-22T10:57:40;13.70;94.10
3923;DHT22;1976;51.694;6.256;2023-11-22T11:00:09;14.30;93.10
3923;DHT22;1976;51.694;6.256;2023-11-22T11:02:44;14.20;92.10
3923;DHT22;1976;51.694;6.256;2023-11-22T11:05:15;14.40;92.10
3923;DHT22;1976;51.694;6.256;2023-11-22T11:07:48;14.10;91.80
3923;DHT22;1976;51.694;6.256;2023-11-22T11:10:15;13.70;91.70
3923;DHT22;1976;51.694;6.256;2023-11-22T11:12:41;13.40;91.80
3923;DHT22;1976;51.694;6.256;2023-11-22T11:15:07;12.80;91.90
3923;DHT22;1976;51.694;6.256;2023-11-22T11:17:33;12.00;92.40
3923;DHT22;1976;51.694;6.256;2023-11-22T11:20:00;11.40;92.90
3923;DHT22;1976;51.694;6.256;2023-11-22T11:22:25;10.90;94.30
3923;DHT22;1976;51.694;6.256;2023-11-22T11:25:01;10.60;95.30
3923;DHT22;1976;51.694;6.256;2023-11-22T11:27:28;10.40;96.00
3923;DHT22;1976;51.694;6.256;2023-11-22T11:29:54;10.30;96.40
3923;DHT22;1976;51.694;6.256;2023-11-22T11:32:32;10.10;96.20
3923;DHT22;1976;51.694;6.256;2023-11-22T11:34:58;10.00;96.20
3923;DHT22;1976;51.694;6.256;2023-11-22T11:37:32;10.10;96.40
3923;DHT22;1976;51.694;6.256;2023-11-22T11:39:58;10.70;96.40
3923;DHT22;1976;51.694;6.256;2023-11-22T11:42:24;11.20;95.40
3923;DHT22;1976;51.694;6.256;2023-11-22T11:47:27;11.50;94.20
3923;DHT22;1976;51.694;6.256;2023-11-22T11:49:52;11.60;93.90
3923;DHT22;1976;51.694;6.256;2023-11-22T11:52:20;11.30;94.00
3923;DHT22;1976;51.694;6.256;2023-11-22T11:54:46;10.90;94.20
3923;DHT22;1976;51.694;6.256;2023-11-22T11:57:11;10.60;95.80
3923;DHT22;1976;51.694;6.256;2023-11-22T11:59:37;10.30;96.10
3923;DHT22;1976;51.694;6.256;2023-11-22T12:02:03;10.10;96.40
3923;DHT22;1976;51.694;6.256;2023-11-22T12:04:31;9.70;97.20
3923;DHT22;1976;51.694;6.256;2023-11-22T12:06:58;9.40;97.10
3923;DHT22;1976;51.694;6.256;2023-11-22T12:09:24;9.50;97.20
3923;DHT22;1976;51.694;6.256;2023-11-22T12:11:51;9.80;96.90
3923;DHT22;1976;51.694;6.256;2023-11-22T12:14:27;9.80;97.10
3923;DHT22;1976;51.694;6.256;2023-11-22T12:16:53;10.20;96.40
3923;DHT22;1976;51.694;6.256;2023-11-22T12:19:28;10.60;96.30
3923;DHT22;1976;51.694;6.256;2023-11-22T12:21:56;11.10;96.00
3923;DHT22;1976;51.694;6.256;2023-11-22T12:24:22;11.60;96.10
3923;DHT22;1976;51.694;6.256;2023-11-22T12:26:48;12.80;92.70
3923;DHT22;1976;51.694;6.256;2023-11-22T12:29:15;13.00;91.30
3923;DHT22;1976;51.694;6.256;2023-11-22T12:31:51;13.00;91.40
3923;DHT22;1976;51.694;6.256;2023-11-22T12:34:20;13.40;91.60
3923;DHT22;1976;51.694;6.256;2023-11-22T12:36:47;14.00;91.40
3923;DHT22;1976;51.694;6.256;2023-11-22T12:39:13;14.70;90.90
3923;DHT22;1976;51.694;6.256;2023-11-22T12:41:47;15.10;90.20
3923;DHT22;1976;51.694;6.256;2023-11-22T12:44:13;14.90;87.00
3923;DHT22;1976;51.694;6.256;2023-11-22T12:46:52;14.40;84.60
3923;DHT22;1976;51.694;6.256;2023-11-22T12:49:24;13.50;86.90
3923;DHT22;1976;51.694;6.256;2023-11-22T12:51:55;13.20;90.30
3923;DHT22;1976;51.694;6.256;2023-11-22T12:54:22;12.80;89.80
3923;DHT22;1976;51.694;6.256;2023-11-22T12:56:52;12.50;90.10
3923;DHT22;1976;51.694;6.256;2023-11-22T12:59:23;12.30;91.00
3923;DHT22;1976;51.694;6.256;2023-11-22T13:01:50;14.60;92.60
3923;DHT22;1976;51.694;6.256;2023-11-22T13:04:17;12.90;91.50
3923;DHT22;1976;51.694;6.256;2023-11-22T13:06:42;13.50;91.00
3923;DHT22;1976;51.694;6.256;2023-11-22T13:09:08;14.00;89.50
3923;DHT22;1976;51.694;6.256;2023-11-22T13:11:43;14.40;87.70
3923;DHT22;1976;51.694;6.256;2023-11-22T13:14:09;14.30;86.20
3923;DHT22;1976;51.694;6.256;2023-11-22T13:16:35;13.70;87.70
3923;DHT22;1976;51.694;6.256;2023-11-22T13:19:02;13.30;87.40
3923;DHT22;1976;51.694;6.256;2023-11-22T13:21:29;12.80;90.00
3923;DHT22;1976;51.694;6.256;2023-11-22T13:23:55;12.60;91.00
3923;DHT22;1976;51.694;6.256;2023-11-22T13:26:21;12.40;91.50
3923;DHT22;1976;51.694;6.256;2023-11-22T13:28:46;12.30;91.80
3923;DHT22;1976;51.694;6.256;2023-11-22T13:31:12;12.20;91.90
3923;DHT22;1976;51.694;6.256;2023-11-22T13:33:38;12.00;93.10
3923;DHT22;1976;51.694;6.256;2023-11-22T13:36:04;11.30;92.00
3923;DHT22;1976;51.694;6.256;2023-11-22T13:38:30;10.60;92.60
3923;DHT22;1976;51.694;6.256;2023-11-22T13:40:56;10.20;93.20
3923;DHT22;1976;51.694;6.256;2023-11-22T13:43:21;10.00;94.70
3923;DHT22;1976;51.694;6.256;2023-11-22T13:45:47;9.90;95.80
3923;DHT22;1976;51.694;6.256;2023-11-22T13:48:12;9.60;95.70
3923;DHT22;1976;51.694;6.256;2023-11-22T13:50:38;9.30;96.60
3923;DHT22;1976;51.694;6.256;2023-11-22T13:53:04;9.30;98.00
3923;DHT22;1976;51.694;6.256;2023-11-22T13:55:30;9.20;96.30
3923;DHT22;1976;51.694;6.256;2023-11-22T13:57:58;9.10;96.60
3923;DHT22;1976;51.694;6.256;2023-11-22T14:00:26;8.80;95.90
3923;DHT22;1976;51.694;6.256;2023-11-22T14:02:55;8.70;97.00
3923;DHT22;1976;51.694;6.256;2023-11-22T14:05:25;8.40;97.20
3923;DHT22;1976;51.694;6.256;2023-11-22T14:07:52;8.20;98.10
3923;DHT22;1976;51.694;6.256;2023-11-22T14:10:18;8.00;97.90
3923;DHT22;1976;51.694;6.256;2023-11-22T14:12:44;8.00;99.30
3923;DHT22;1976;51.694;6.256;2023-11-22T14:15:11;7.90;99.60
3923;DHT22;1976;51.694;6.256;2023-11-22T14:17:37;7.80;99.90
3923;DHT22;1976;51.694;6.256;2023-11-22T14:20:15;7.90;99.90
3923;DHT22;1976;51.694;6.256;2023-11-22T14:22:42;7.80;99.90
3923;DHT22;1976;51.694;6.256;2023-11-22T14:25:10;7.80;99.90
3923;DHT22;1976;51.694;6.256;2023-11-22T14:27:46;7.70;99.90
3923;DHT22;1976;51.694;6.256;2023-11-22T14:30:12;7.70;99.90
3923;DHT22;1976;51.694;6.256;2023-11-22T14:32:43;7.70;99.90
3923;DHT22;1976;51.694;6.256;2023-11-22T14:35:09;7.60;99.90
3923;DHT22;1976;51.694;6.256;2023-11-22T14:37:35;7.60;99.90
3923;DHT22;1976;51.694;6.256;2023-11-22T14:40:01;7.50;99.90
3923;DHT22;1976;51.694;6.256;2023-11-22T14:42:29;7.50;99.90
3923;DHT22;1976;51.694;6.256;2023-11-22T14:44:55;7.50;99.90
3923;DHT22;1976;51.694;6.256;2023-11-22T14:47:22;7.50;99.90
3923;DHT22;1976;51.694;6.256;2023-11-22T14:49:52;7.60;99.90
3923;DHT22;1976;51.694;6.256;2023-11-22T14:52:17;7.60;99.90
3923;DHT22;1976;51.694;6.256;2023-11-22T14:54:44;7.50;99.90
3923;DHT22;1976;51.694;6.256;2023-11-22T14:57:10;7.50;99.90
3923;DHT22;1976;51.694;6.256;2023-11-22T14:59:38;7.50;99.90
3923;DHT22;1976;51.694;6.256;2023-11-22T15:02:04;7.20;99.90
3923;DHT22;1976;51.694;6.256;2023-11-22T15:04:36;7.20;99.90
3923;DHT22;1976;51.694;6.256;2023-11-22T15:07:06;7.20;99.90
3923;DHT22;1976;51.694;6.256;2023-11-22T15:11:59;7.20;99.90
3923;DHT22;1976;51.694;6.256;2023-11-22T15:14:27;7.30;99.90
3923;DHT22;1976;51.694;6.256;2023-11-22T15:21:50;7.20;99.90
3923;DHT22;1976;51.694;6.256;2023-11-22T15:24:17;7.30;99.90
3923;DHT22;1976;51.694;6.256;2023-11-22T15:26:43;7.30;99.90
3923;DHT22;1976;51.694;6.256;2023-11-22T15:29:08;7.30;99.90
3923;DHT22;1976;51.694;6.256;2023-11-22T15:31:34;7.20;99.90
3923;DHT22;1976;51.694;6.256;2023-11-22T15:34:00;7.10;99.90
3923;DHT22;1976;51.694;6.256;2023-11-22T15:36:26;7.00;99.90
3923;DHT22;1976;51.694;6.256;2023-11-22T15:38:52;7.00;99.90
3923;DHT22;1976;51.694;6.256;2023-11-22T15:41:17;7.00;99.90
3923;DHT22;1976;51.694;6.256;2023-11-22T15:43:43;6.80;99.90
3923;DHT22;1976;51.694;6.256;2023-11-22T15:46:12;6.90;99.90
3923;DHT22;1976;51.694;6.256;2023-11-22T15:48:38;6.80;99.90
3923;DHT22;1976;51.694;6.256;2023-11-22T15:51:04;6.80;99.90
3923;DHT22;1976;51.694;6.256;2023-11-22T15:53:32;6.70;99.90
3923;DHT22;1976;51.694;6.256;2023-11-22T15:55:57;6.60;99.90
3923;DHT22;1976;51.694;6.256;2023-11-22T15:58:23;6.60;99.90
3923;DHT22;1976;51.694;6.256;2023-11-22T16:00:49;6.60;99.90
3923;DHT22;1976;51.694;6.256;2023-11-22T16:03:16;6.70;99.90
3923;DHT22;1976;51.694;6.256;2023-11-22T16:05:44;6.80;99.90
3923;DHT22;1976;51.694;6.256;2023-11-22T16:08:11;6.80;99.90
3923;DHT22;1976;51.694;6.256;2023-11-22T16:10:37;6.90;99.90
3923;DHT22;1976;51.694;6.256;2023-11-22T16:13:02;6.70;99.90
3923;DHT22;1976;51.694;6.256;2023-11-22T16:15:28;6.60;99.90
3923;DHT22;1976;51.694;6.256;2023-11-22T16:17:54;6.60;99.90
3923;DHT22;1976;51.694;6.256;2023-11-22T16:20:22;6.60;99.90
3923;DHT22;1976;51.694;6.256;2023-11-22T16:22:47;6.60;99.90
3923;DHT22;1976;51.694;6.256;2023-11-22T16:25:15;6.60;99.90
3923;DHT22;1976;51.694;6.256;2023-11-22T16:27:48;6.60;99.90